Time;durP1;ratioP1;P1;durP2;ratioP2;P2;SDS_P1;SDS_P2;PMS_P1;PMS_P2;Temp;Humidity;BMP_temperature;BMP_pressure;BME280_temperature;BME280_humidity;BME280_pressure;Samples;Min_cycle;Max_cycle;Signal;HPM_P1;HPM_P2
2021/07/27 00:01:35;;;;;;;7.25;5.82;;;;;;;19.66;90.34;100384.94;5028400;28;20084;-66
2021/07/27 00:04:03;;;;;;;10.25;6.63;;;;;;;19.58;91.47;100394.69;5008800;28;20141;-67
2021/07/27 00:06:30;;;;;;;9.57;6.95;;;;;;;19.66;90.97;100384.09;5008003;28;20058;-66
2021/07/27 00:08:58;;;;;;;8.40;6.30;;;;;;;19.55;91.83;100379.81;5019264;28;20173;-66
2021/07/27 00:11:25;;;;;;;8.95;6.32;;;;;;;19.51;92.04;100375.78;5012609;28;20050;-67
2021/07/27 00:13:52;;;;;;;9.40;6.60;;;;;;;19.48;92.79;100381.41;4999522;28;20041;-67
2021/07/27 00:16:20;;;;;;;9.50;6.82;;;;;;;19.39;93.40;100380.50;5009200;28;20112;-67
2021/07/27 00:18:47;;;;;;;6.95;5.97;;;;;;;19.33;94.07;100382.97;5023138;28;20144;-67
2021/07/27 00:21:14;;;;;;;7.80;6.43;;;;;;;19.27;94.39;100386.22;5017680;28;20495;-68
2021/07/27 00:23:41;;;;;;;7.72;6.18;;;;;;;19.20;95.22;100381.50;5003376;28;20052;-66
2021/07/27 00:26:13;;;;;;;9.57;6.55;;;;;;;19.12;95.83;100378.75;5020913;28;20058;-67
2021/07/27 00:28:41;;;;;;;8.27;7.15;;;;;;;19.16;96.68;100379.28;4992011;28;20148;-67
2021/07/27 00:31:18;;;;;;;11.65;6.88;;;;;;;19.21;95.95;100385.00;4989853;28;20567;-67
2021/07/27 00:33:48;;;;;;;9.05;6.97;;;;;;;19.16;96.59;100373.97;5018902;28;20108;-66
2021/07/27 00:36:15;;;;;;;10.50;7.55;;;;;;;19.15;97.07;100373.13;4986248;28;20080;-66
2021/07/27 00:38:43;;;;;;;9.20;6.93;;;;;;;19.13;97.36;100367.06;4985152;28;20079;-67
2021/07/27 00:41:10;;;;;;;11.60;6.80;;;;;;;19.13;97.53;100361.75;5023149;28;20042;-67
2021/07/27 00:43:37;;;;;;;9.98;7.70;;;;;;;19.12;98.09;100359.25;5004055;28;20053;-65
2021/07/27 00:46:04;;;;;;;13.65;6.75;;;;;;;19.25;97.51;100364.19;4999438;28;20136;-66
2021/07/27 00:48:32;;;;;;;9.55;6.95;;;;;;;19.30;97.39;100362.75;5000849;28;20050;-67
2021/07/27 00:50:59;;;;;;;8.30;6.85;;;;;;;19.43;96.42;100367.69;5002652;28;20052;-67
2021/07/27 00:53:27;;;;;;;9.52;7.43;;;;;;;19.40;96.56;100371.50;5018088;28;20076;-67
2021/07/27 00:55:54;;;;;;;9.82;7.55;;;;;;;19.35;97.17;100367.63;5013055;28;20082;-68
2021/07/27 00:58:22;;;;;;;9.68;7.40;;;;;;;19.31;97.70;100364.41;5013769;28;20136;-66
2021/07/27 01:00:50;;;;;;;13.10;7.72;;;;;;;19.29;98.38;100365.56;5002941;28;20128;-65
2021/07/27 01:03:17;;;;;;;11.43;7.05;;;;;;;19.34;98.22;100366.78;4994535;28;20064;-67
2021/07/27 01:05:45;;;;;;;9.45;6.55;;;;;;;19.41;97.57;100357.19;5023672;28;20052;-66
2021/07/27 01:08:13;;;;;;;8.55;7.57;;;;;;;19.48;97.18;100363.56;5013771;28;20064;-66
2021/07/27 01:10:40;;;;;;;11.02;8.20;;;;;;;19.55;96.73;100366.47;5012527;28;20054;-68
2021/07/27 01:13:08;;;;;;;11.23;7.97;;;;;;;19.42;97.67;100358.84;5017562;28;20537;-66
2021/07/27 01:15:35;;;;;;;11.88;8.10;;;;;;;19.38;98.24;100359.31;4973433;28;20053;-67
2021/07/27 01:18:06;;;;;;;12.77;8.32;;;;;;;19.52;97.83;100357.94;4999406;28;20049;-66
2021/07/27 01:20:46;;;;;;;8.80;7.63;;;;;;;19.58;97.10;100367.97;4986077;28;20046;-67
2021/07/27 01:39:49;;;;;;;10.75;8.18;;;;;;;19.68;96.51;100364.28;4984751;28;20019;-65
2021/07/27 01:42:18;;;;;;;11.65;7.85;;;;;;;19.56;97.00;100364.63;5021149;28;20049;-66
2021/07/27 01:44:46;;;;;;;11.75;8.45;;;;;;;19.49;98.16;100370.56;5002968;28;20075;-66
2021/07/27 01:47:18;;;;;;;11.55;8.48;;;;;;;19.42;99.13;100369.53;4989510;28;20549;-66
2021/07/27 01:49:46;;;;;;;8.85;7.95;;;;;;;19.47;98.90;100382.41;5011682;28;20124;-67
2021/07/27 01:52:14;;;;;;;9.98;8.10;;;;;;;19.50;98.72;100374.13;5018507;28;20453;-67
2021/07/27 01:54:46;;;;;;;10.65;8.23;;;;;;;19.36;99.95;100372.81;5008166;28;20647;-67
2021/07/27 01:57:14;;;;;;;11.05;8.05;;;;;;;19.30;100.00;100365.41;5000996;28;20085;-67
2021/07/27 01:59:41;;;;;;;11.65;8.15;;;;;;;19.22;100.00;100376.00;5004051;28;20416;-67
2021/07/27 02:02:11;;;;;;;10.32;8.13;;;;;;;19.16;100.00;100366.78;4997935;28;20281;-67
2021/07/27 02:04:39;;;;;;;11.00;7.82;;;;;;;19.18;100.00;100372.81;5002991;28;20045;-67
2021/07/27 02:07:09;;;;;;;10.45;8.43;;;;;;;19.27;100.00;100378.22;5018870;28;20181;-67
2021/07/27 02:09:40;;;;;;;13.55;10.38;;;;;;;19.31;100.00;100376.94;5006791;28;20056;-66
2021/07/27 02:12:16;;;;;;;14.18;9.68;;;;;;;19.31;100.00;100377.75;4996539;28;20042;-66
2021/07/27 02:17:30;;;;;;;13.43;9.50;;;;;;;19.28;100.00;100380.75;4986652;28;20007;-66
2021/07/27 02:20:00;;;;;;;10.25;9.13;;;;;;;19.26;100.00;100379.22;5026784;28;20049;-66
2021/07/27 02:22:27;;;;;;;10.80;8.60;;;;;;;19.23;100.00;100380.38;4999753;28;20049;-66
2021/07/27 02:24:54;;;;;;;10.70;8.73;;;;;;;19.29;100.00;100374.41;5010134;28;20136;-66
2021/07/27 02:27:22;;;;;;;11.43;8.60;;;;;;;19.25;100.00;100370.38;4993500;28;20061;-66
2021/07/27 02:29:50;;;;;;;13.13;9.10;;;;;;;19.24;100.00;100368.69;4999705;28;20055;-65
2021/07/27 02:32:17;;;;;;;14.10;9.25;;;;;;;19.32;100.00;100358.09;4997211;28;20067;-67
2021/07/27 02:34:45;;;;;;;15.93;8.65;;;;;;;19.35;100.00;100365.78;5003423;28;20041;-67
2021/07/27 02:37:13;;;;;;;10.73;9.07;;;;;;;19.36;100.00;100354.16;4993671;28;20133;-67
2021/07/27 02:39:40;;;;;;;12.02;8.65;;;;;;;19.41;100.00;100356.34;5040459;23;20092;-74
2021/07/27 02:42:07;;;;;;;12.45;8.82;;;;;;;19.39;100.00;100347.63;5019321;28;20118;-74
2021/07/27 02:44:35;;;;;;;9.30;8.38;;;;;;;19.53;99.35;100347.09;5040035;28;20158;-75
2021/07/27 02:47:02;;;;;;;11.05;8.63;;;;;;;19.57;99.14;100343.13;5017880;28;20154;-74
2021/07/27 02:49:30;;;;;;;12.05;8.02;;;;;;;19.63;98.73;100341.69;5044095;28;20073;-74
2021/07/27 02:51:57;;;;;;;11.45;8.10;;;;;;;19.54;99.06;100356.75;5030743;28;20052;-74
2021/07/27 02:54:24;;;;;;;11.27;8.43;;;;;;;19.58;99.11;100355.47;5017589;28;20141;-74
2021/07/27 02:56:51;;;;;;;12.98;8.60;;;;;;;19.45;100.00;100347.00;5010001;28;20119;-73
2021/07/27 02:59:19;;;;;;;9.23;7.78;;;;;;;19.43;99.90;100349.00;5023179;28;20080;-73
2021/07/27 03:01:46;;;;;;;10.00;8.15;;;;;;;19.41;100.00;100357.19;5030344;28;20142;-74
2021/07/27 03:04:15;;;;;;;8.52;7.70;;;;;;;19.45;100.00;100355.88;5036096;28;20056;-74
2021/07/27 03:06:45;;;;;;;12.73;8.82;;;;;;;19.57;98.53;100352.97;4998043;28;20726;-74
2021/07/27 03:09:16;;;;;;;11.00;8.00;;;;;;;19.45;99.28;100355.03;5021070;28;20122;-74
2021/07/27 03:11:43;;;;;;;11.60;8.18;;;;;;;19.49;98.55;100357.22;5014096;28;20597;-74
2021/07/27 03:14:10;;;;;;;15.10;8.45;;;;;;;19.55;98.81;100360.31;5047023;28;20114;-73
2021/07/27 03:16:38;;;;;;;9.48;8.52;;;;;;;19.39;99.30;100352.97;5016576;28;20053;-74
2021/07/27 03:19:05;;;;;;;12.05;8.52;;;;;;;19.34;99.41;100349.94;5010722;28;20573;-73
2021/07/27 03:21:32;;;;;;;13.70;8.70;;;;;;;19.27;99.97;100354.19;5035261;28;20098;-72
2021/07/27 03:23:59;;;;;;;15.57;8.55;;;;;;;19.25;100.00;100365.03;5014673;28;20155;-74
2021/07/27 03:26:27;;;;;;;11.52;8.15;;;;;;;19.23;100.00;100364.38;5004155;28;20171;-74
2021/07/27 03:28:54;;;;;;;12.30;9.32;;;;;;;19.15;100.00;100356.28;5018130;28;20060;-75
2021/07/27 03:31:21;;;;;;;9.98;8.18;;;;;;;19.13;100.00;100359.06;5025368;28;20413;-73
2021/07/27 03:33:48;;;;;;;11.25;8.95;;;;;;;19.06;100.00;100359.84;5012327;28;20057;-74
2021/07/27 03:36:15;;;;;;;9.68;8.70;;;;;;;19.13;100.00;100363.56;5041976;28;20057;-73
2021/07/27 03:38:42;;;;;;;13.02;8.45;;;;;;;19.26;100.00;100363.19;5018479;28;20376;-73
2021/07/27 03:41:11;;;;;;;11.32;8.48;;;;;;;19.31;100.00;100364.41;5033197;28;20092;-73
2021/07/27 03:43:39;;;;;;;11.27;8.73;;;;;;;19.28;100.00;100366.56;4986439;28;20038;-73
2021/07/27 03:46:06;;;;;;;10.13;8.00;;;;;;;19.15;100.00;100365.13;5021294;28;20053;-74
2021/07/27 03:48:34;;;;;;;13.02;8.30;;;;;;;19.15;100.00;100378.47;5037259;28;20125;-75
2021/07/27 03:51:01;;;;;;;13.52;9.02;;;;;;;19.05;100.00;100374.16;5044827;28;20214;-75
2021/07/27 03:53:29;;;;;;;10.88;9.43;;;;;;;19.10;100.00;100379.91;5014169;28;20046;-73
2021/07/27 03:55:56;;;;;;;13.80;8.57;;;;;;;19.12;100.00;100378.75;5039903;28;20211;-72
2021/07/27 03:58:23;;;;;;;10.50;9.38;;;;;;;19.20;100.00;100380.66;5032682;28;20059;-72
2021/07/27 04:00:50;;;;;;;11.02;9.90;;;;;;;19.21;100.00;100375.16;5037966;28;20457;-73
2021/07/27 04:03:17;;;;;;;11.65;8.23;;;;;;;19.25;100.00;100385.56;5011416;28;20071;-72
2021/07/27 04:05:45;;;;;;;11.95;8.57;;;;;;;19.33;100.00;100394.47;5035364;28;20049;-73
2021/07/27 04:08:12;;;;;;;10.23;8.55;;;;;;;19.36;100.00;100396.84;5002587;28;20050;-73
2021/07/27 04:10:40;;;;;;;10.85;7.93;;;;;;;19.43;100.00;100389.88;5042555;28;20049;-75
2021/07/27 04:13:07;;;;;;;9.95;7.45;;;;;;;19.54;99.77;100404.81;5032541;28;20543;-74
2021/07/27 04:15:34;;;;;;;12.70;8.18;;;;;;;19.70;98.47;100405.00;5008585;28;20748;-74
2021/07/27 04:18:01;;;;;;;12.07;8.18;;;;;;;19.81;98.03;100408.41;5013039;28;20547;-74
2021/07/27 04:20:28;;;;;;;11.73;8.43;;;;;;;19.78;97.51;100400.72;5045698;28;20056;-75
2021/07/27 04:22:56;;;;;;;15.57;8.32;;;;;;;20.00;95.89;100397.56;5025934;28;20045;-75
2021/07/27 04:25:23;;;;;;;12.43;7.93;;;;;;;19.94;96.33;100416.88;5041980;28;20132;-75
2021/07/27 04:27:51;;;;;;;12.68;7.57;;;;;;;20.06;95.66;100410.28;5032653;28;20096;-73
2021/07/27 04:30:18;;;;;;;18.10;8.27;;;;;;;20.32;93.76;100406.78;5018572;28;20045;-73
2021/07/27 04:32:45;;;;;;;12.25;8.10;;;;;;;20.50;92.49;100418.25;5018907;28;20332;-74
2021/07/27 04:35:13;;;;;;;8.45;7.22;;;;;;;20.80;90.93;100416.03;5041292;28;20063;-74
2021/07/27 04:37:40;;;;;;;11.63;7.60;;;;;;;21.72;85.56;100410.53;5038450;28;20044;-74
2021/07/27 04:40:08;;;;;;;9.60;7.80;;;;;;;23.03;78.30;100417.44;5025223;28;20131;-75
2021/07/27 04:42:35;;;;;;;7.95;7.03;;;;;;;24.30;71.97;100410.56;5004706;28;20635;-74
2021/07/27 04:45:02;;;;;;;9.80;6.60;;;;;;;25.60;65.98;100416.09;5028794;28;20128;-74
2021/07/27 04:47:29;;;;;;;8.63;6.43;;;;;;;26.35;60.62;100406.53;5020753;28;20064;-74
2021/07/27 04:49:57;;;;;;;9.02;6.03;;;;;;;26.86;58.37;100409.72;5039552;28;20061;-73
2021/07/27 04:52:24;;;;;;;11.00;6.25;;;;;;;27.68;55.42;100419.47;5034863;28;20079;-73
2021/07/27 04:54:57;;;;;;;10.60;6.18;;;;;;;28.07;53.78;100417.03;5043175;28;20548;-74
2021/07/27 04:57:24;;;;;;;7.32;6.18;;;;;;;28.73;51.92;100412.31;5010762;28;20049;-73
2021/07/27 04:59:52;;;;;;;10.10;5.70;;;;;;;29.39;49.14;100413.00;5042351;28;20052;-74
2021/07/27 05:02:22;;;;;;;7.93;6.22;;;;;;;29.62;48.26;100413.28;5016453;28;20912;-75
2021/07/27 05:04:50;;;;;;;9.27;6.00;;;;;;;29.64;48.57;100423.94;5037956;28;20092;-74
2021/07/27 05:07:17;;;;;;;10.10;7.05;;;;;;;29.05;49.80;100430.53;5027101;28;20435;-73
2021/07/27 05:09:44;;;;;;;7.75;5.78;;;;;;;29.74;47.24;100427.81;5044856;28;20140;-75
2021/07/27 05:12:11;;;;;;;8.63;5.35;;;;;;;29.98;46.46;100436.16;5024873;28;20141;-75
2021/07/27 05:14:39;;;;;;;7.00;5.78;;;;;;;30.52;45.27;100430.00;5014752;28;20113;-74
2021/07/27 05:17:10;;;;;;;8.65;5.35;;;;;;;30.98;44.29;100428.66;5020313;28;20129;-76
2021/07/27 05:19:51;;;;;;;9.82;5.35;;;;;;;30.95;43.47;100431.84;5023457;28;20499;-75
2021/07/27 05:22:20;;;;;;;12.98;6.18;;;;;;;31.84;41.90;100431.19;5002725;28;20136;-75
2021/07/27 05:24:47;;;;;;;13.38;6.30;;;;;;;32.18;40.89;100433.13;5013874;28;20040;-75
2021/07/27 05:27:15;;;;;;;12.48;5.63;;;;;;;31.45;41.79;100426.13;5027903;28;20077;-74
2021/07/27 05:29:42;;;;;;;7.85;5.85;;;;;;;32.16;40.53;100429.00;5025403;28;20071;-75
2021/07/27 05:32:09;;;;;;;7.38;5.40;;;;;;;32.62;39.13;100425.41;5026677;28;20119;-74
2021/07/27 05:34:36;;;;;;;8.82;4.72;;;;;;;32.48;39.46;100429.47;5040725;28;20049;-75
2021/07/27 05:37:03;;;;;;;8.93;5.78;;;;;;;33.43;37.41;100422.63;4997008;28;20100;-75
2021/07/27 05:39:31;;;;;;;8.88;5.97;;;;;;;33.93;36.38;100432.75;5017101;28;20522;-75
2021/07/27 05:42:03;;;;;;;9.48;6.00;;;;;;;34.40;35.04;100430.47;5012290;28;20045;-75
2021/07/27 05:44:30;;;;;;;7.05;6.10;;;;;;;34.73;34.36;100423.28;5021569;28;20337;-75
2021/07/27 05:46:58;;;;;;;12.35;5.38;;;;;;;35.11;33.45;100427.81;5036772;28;20057;-74
2021/07/27 05:49:26;;;;;;;6.28;5.68;;;;;;;34.98;34.23;100430.97;5005670;28;20049;-74
2021/07/27 05:51:53;;;;;;;7.82;5.75;;;;;;;35.48;33.41;100427.13;5015458;28;20084;-76
2021/07/27 05:54:21;;;;;;;6.80;5.60;;;;;;;35.78;32.63;100433.97;5013731;28;20123;-75
2021/07/27 05:56:49;;;;;;;10.68;5.40;;;;;;;36.09;31.86;100435.03;5034787;28;20049;-72
2021/07/27 05:59:16;;;;;;;9.13;5.30;;;;;;;36.30;31.35;100439.56;5012026;28;20057;-71
2021/07/27 06:01:46;;;;;;;10.30;5.28;;;;;;;36.25;31.89;100437.63;5012483;28;20140;-73
2021/07/27 06:04:14;;;;;;;8.23;5.03;;;;;;;36.57;31.50;100444.13;5030864;28;20091;-71
2021/07/27 06:06:42;;;;;;;13.13;4.97;;;;;;;36.87;30.38;100449.69;4997621;28;20042;-73
2021/07/27 06:09:13;;;;;;;7.68;5.13;;;;;;;37.78;28.70;100452.94;5036391;28;20151;-72
2021/07/27 06:11:41;;;;;;;12.05;5.95;;;;;;;36.51;30.49;100445.97;5017422;28;20053;-73
2021/07/27 06:14:08;;;;;;;6.82;5.25;;;;;;;34.26;34.41;100451.03;5014683;28;20124;-70
2021/07/27 06:16:37;;;;;;;11.23;5.60;;;;;;;33.55;35.69;100447.13;5006482;28;20055;-75
2021/07/27 06:19:07;;;;;;;12.52;6.07;;;;;;;35.11;33.22;100449.72;5024573;28;20587;-71
2021/07/27 06:21:38;;;;;;;10.27;6.13;;;;;;;35.80;31.77;100451.78;5029845;28;20137;-72
2021/07/27 06:24:07;;;;;;;7.07;4.57;;;;;;;35.66;32.08;100456.03;5028677;28;20123;-69
2021/07/27 06:26:34;;;;;;;7.30;4.80;;;;;;;35.82;31.43;100457.00;5032347;28;20070;-69
2021/07/27 06:29:03;;;;;;;11.05;4.55;;;;;;;36.29;30.38;100456.25;5007716;28;20057;-72
2021/07/27 06:31:31;;;;;;;6.90;4.32;;;;;;;35.81;31.60;100458.09;5011102;28;20088;-72
2021/07/27 06:33:58;;;;;;;7.15;5.25;;;;;;;36.01;30.24;100461.00;5012220;28;20424;-70
2021/07/27 06:36:27;;;;;;;6.88;4.78;;;;;;;36.76;29.58;100461.75;5025368;28;20148;-71
2021/07/27 06:38:55;;;;;;;18.52;5.28;;;;;;;35.78;30.55;100459.44;5029648;28;20056;-70
2021/07/27 06:41:23;;;;;;;5.93;4.25;;;;;;;36.06;30.67;100452.81;5030392;28;20144;-71
2021/07/27 06:43:50;;;;;;;10.95;5.07;;;;;;;36.79;29.35;100454.88;5027499;28;20057;-72
2021/07/27 06:46:17;;;;;;;8.93;4.30;;;;;;;36.13;30.07;100449.88;5023565;28;20085;-72
2021/07/27 06:48:44;;;;;;;5.50;4.05;;;;;;;36.61;29.14;100464.41;5021018;28;20041;-70
2021/07/27 06:51:16;;;;;;;5.72;4.25;;;;;;;37.70;28.13;100462.56;5018147;28;20079;-70
2021/07/27 06:53:44;;;;;;;7.53;4.30;;;;;;;36.73;28.83;100456.78;5036434;28;20521;-71
2021/07/27 06:56:12;;;;;;;5.97;4.00;;;;;;;36.08;29.16;100458.88;5038792;28;20076;-73
2021/07/27 06:58:40;;;;;;;9.75;4.30;;;;;;;36.66;29.56;100462.53;5011348;28;20049;-70
2021/07/27 07:01:11;;;;;;;5.20;4.35;;;;;;;36.93;28.58;100467.06;5030069;28;20050;-71
2021/07/27 07:03:42;;;;;;;5.63;4.20;;;;;;;37.80;27.71;100462.56;5022089;28;20072;-71
2021/07/27 07:06:15;;;;;;;8.93;4.55;;;;;;;38.05;26.62;100471.91;5033940;28;20172;-69
2021/07/27 07:08:43;;;;;;;8.27;4.23;;;;;;;37.69;27.09;100461.75;5028913;28;20099;-71
2021/07/27 07:11:13;;;;;;;4.57;4.15;;;;;;;36.50;28.37;100467.09;5036048;28;20104;-71
2021/07/27 07:13:40;;;;;;;7.25;4.38;;;;;;;37.53;27.29;100465.56;5031514;28;20357;-71
2021/07/27 07:16:09;;;;;;;6.07;4.05;;;;;;;36.88;27.54;100470.59;5014128;28;20151;-69
2021/07/27 07:18:37;;;;;;;5.50;4.10;;;;;;;36.46;28.16;100476.13;5003403;28;20492;-70
2021/07/27 07:21:05;;;;;;;12.30;4.22;;;;;;;36.29;28.48;100469.97;5028678;28;20562;-76
2021/07/27 07:23:32;;;;;;;4.65;4.05;;;;;;;37.72;26.94;100471.34;4993031;28;20416;-70
2021/07/27 07:26:02;;;;;;;7.63;4.40;;;;;;;36.89;27.68;100472.22;5018958;28;20045;-71
2021/07/27 07:28:30;;;;;;;6.85;4.30;;;;;;;38.06;26.25;100470.81;5021621;28;20603;-71
2021/07/27 07:30:57;;;;;;;7.85;4.25;;;;;;;37.84;26.54;100473.81;5024053;28;20056;-70
2021/07/27 07:33:24;;;;;;;7.32;4.43;;;;;;;38.29;25.92;100472.16;5025003;28;20100;-70
2021/07/27 07:35:51;;;;;;;7.53;4.07;;;;;;;37.83;26.30;100466.66;5015674;28;20052;-71
2021/07/27 07:38:18;;;;;;;6.75;3.80;;;;;;;38.19;25.66;100471.06;5025210;28;20137;-71
2021/07/27 07:40:45;;;;;;;4.03;3.70;;;;;;;36.65;27.09;100476.50;5007104;28;20511;-70
2021/07/27 07:43:12;;;;;;;6.97;4.28;;;;;;;38.34;25.17;100473.00;5023417;28;20073;-70
2021/07/27 07:45:40;;;;;;;4.35;3.70;;;;;;;38.42;26.00;100474.34;5027400;28;20049;-70
2021/07/27 07:48:10;;;;;;;7.45;4.50;;;;;;;38.89;25.64;100471.16;5022406;28;20136;-70
2021/07/27 07:50:38;;;;;;;4.35;3.95;;;;;;;38.30;26.17;100468.28;5027924;28;20104;-69
2021/07/27 07:53:05;;;;;;;4.05;3.67;;;;;;;38.83;24.56;100465.97;5022561;28;20563;-71
2021/07/27 07:55:32;;;;;;;3.78;3.33;;;;;;;38.93;24.58;100466.75;5022948;28;20591;-70
2021/07/27 07:58:01;;;;;;;8.68;4.00;;;;;;;38.91;23.92;100471.72;5006414;28;20041;-69
2021/07/27 08:00:28;;;;;;;4.10;3.70;;;;;;;38.91;24.53;100466.22;5030765;28;20049;-70
2021/07/27 08:02:55;;;;;;;8.43;4.15;;;;;;;38.67;24.14;100466.00;5024651;28;21539;-72
2021/07/27 08:05:23;;;;;;;4.97;3.80;;;;;;;38.57;24.35;100463.28;5026314;28;20140;-71
2021/07/27 08:07:50;;;;;;;9.68;3.83;;;;;;;38.95;24.29;100460.94;5022059;28;20501;-69
2021/07/27 08:10:17;;;;;;;4.10;3.67;;;;;;;38.75;24.33;100459.09;5027662;28;20076;-70
2021/07/27 08:12:46;;;;;;;6.47;4.22;;;;;;;38.45;25.04;100462.78;5020630;28;20140;-73
2021/07/27 08:15:18;;;;;;;7.15;3.88;;;;;;;38.64;24.51;100461.06;5016349;28;20106;-69
2021/07/27 08:17:45;;;;;;;4.15;3.72;;;;;;;38.83;24.51;100457.72;5021556;28;20046;-71
2021/07/27 08:20:14;;;;;;;4.63;3.85;;;;;;;38.15;25.20;100455.41;4996361;28;20049;-73
2021/07/27 08:22:41;;;;;;;4.75;4.03;;;;;;;39.34;24.14;100458.28;4992788;28;20128;-70
2021/07/27 08:25:15;;;;;;;7.90;4.03;;;;;;;39.14;24.21;100459.22;5014835;28;20144;-70
2021/07/27 08:27:43;;;;;;;11.60;5.07;;;;;;;39.00;23.96;100469.19;5011425;28;20155;-70
2021/07/27 08:30:17;;;;;;;6.75;3.63;;;;;;;38.82;24.65;100462.41;5012300;28;20140;-72
2021/07/27 08:32:48;;;;;;;8.15;3.92;;;;;;;38.06;25.97;100457.06;5028297;28;20049;-70
2021/07/27 08:35:17;;;;;;;7.63;3.80;;;;;;;38.56;24.71;100458.09;5039440;28;20049;-71
2021/07/27 08:37:44;;;;;;;5.10;3.70;;;;;;;37.06;27.03;100454.72;5025178;28;20059;-70
2021/07/27 08:40:12;;;;;;;5.65;3.78;;;;;;;35.73;29.18;100451.16;5034799;28;20716;-70
2021/07/27 08:42:41;;;;;;;4.35;3.55;;;;;;;33.40;32.55;100453.13;5025229;28;20059;-70
2021/07/27 08:45:09;;;;;;;6.00;3.30;;;;;;;32.48;34.48;100449.34;5035986;28;20076;-69
2021/07/27 08:47:40;;;;;;;4.10;3.40;;;;;;;31.79;35.66;100456.38;5027614;28;20140;-70
2021/07/27 08:50:09;;;;;;;9.38;3.33;;;;;;;31.37;36.93;100453.66;5029908;28;20646;-68
2021/07/27 08:52:36;;;;;;;4.78;3.08;;;;;;;30.87;36.77;100458.50;5029218;28;20046;-71
2021/07/27 08:55:05;;;;;;;3.80;2.92;;;;;;;31.04;35.40;100456.81;5015606;28;20050;-71
2021/07/27 08:57:32;;;;;;;5.80;2.85;;;;;;;30.86;36.23;100462.28;5023296;28;20083;-70
2021/07/27 09:00:00;;;;;;;4.72;2.83;;;;;;;29.90;37.58;100469.00;5031724;28;20058;-70
2021/07/27 09:02:30;;;;;;;9.25;2.97;;;;;;;28.97;38.92;100473.09;5025340;28;20196;-70
2021/07/27 09:05:10;;;;;;;5.85;2.85;;;;;;;28.18;40.64;100465.91;5031578;28;20550;-71
2021/07/27 09:07:37;;;;;;;6.85;3.00;;;;;;;28.67;40.13;100467.31;5008257;28;20588;-71
2021/07/27 09:10:19;;;;;;;3.85;2.30;;;;;;;29.19;37.60;100461.94;5011118;28;20049;-71
2021/07/27 09:13:25;;;;;;;4.18;2.72;;;;;;;29.33;38.08;100473.56;5031186;28;20506;-69
2021/07/27 09:15:57;;;;;;;3.50;2.85;;;;;;;29.40;38.42;100471.63;5025768;28;20096;-69
2021/07/27 09:18:24;;;;;;;6.88;2.50;;;;;;;29.25;38.26;100464.63;5021249;28;20119;-69
2021/07/27 09:20:53;;;;;;;4.82;3.25;;;;;;;29.48;38.03;100472.19;5028358;28;20072;-70
2021/07/27 09:23:26;;;;;;;6.80;2.70;;;;;;;29.38;38.07;100461.00;5027839;28;20055;-69
2021/07/27 09:25:59;;;;;;;6.18;2.88;;;;;;;29.46;38.75;100468.88;5018405;28;20052;-70
2021/07/27 09:28:27;;;;;;;3.60;2.80;;;;;;;30.02;38.08;100467.25;5010974;28;20514;-70
2021/07/27 09:31:00;;;;;;;5.32;2.88;;;;;;;29.89;37.53;100467.34;5012674;28;20077;-71
2021/07/27 09:33:33;;;;;;;4.95;3.58;;;;;;;29.92;38.39;100462.31;5016314;28;20371;-70
2021/07/27 09:36:01;;;;;;;3.60;2.80;;;;;;;29.89;39.35;100470.91;5023538;28;20136;-70
2021/07/27 09:38:34;;;;;;;5.45;3.45;;;;;;;29.72;39.35;100472.47;5018219;28;20504;-71
2021/07/27 09:41:05;;;;;;;3.80;3.03;;;;;;;29.81;39.40;100471.19;5028314;28;20081;-69
2021/07/27 09:43:44;;;;;;;5.15;3.03;;;;;;;30.24;37.81;100473.97;5031686;28;20050;-70
2021/07/27 09:46:11;;;;;;;5.15;3.47;;;;;;;30.54;37.74;100467.00;5022325;28;20444;-71
2021/07/27 09:48:42;;;;;;;5.00;2.95;;;;;;;30.46;38.20;100471.66;5012293;28;20136;-70
2021/07/27 09:51:11;;;;;;;5.13;3.10;;;;;;;30.55;37.46;100466.78;5008826;28;20115;-70
2021/07/27 09:53:40;;;;;;;4.57;3.10;;;;;;;30.32;36.80;100453.03;4992723;28;20136;-70
2021/07/27 09:56:08;;;;;;;6.40;3.17;;;;;;;29.93;38.12;100466.69;5007036;28;20052;-69
2021/07/27 09:58:36;;;;;;;5.13;3.53;;;;;;;29.66;39.42;100457.09;5033497;28;20054;-70
2021/07/27 10:01:23;;;;;;;6.07;3.92;;;;;;;29.60;39.45;100461.53;5011833;28;20048;-69
2021/07/27 10:04:09;;;;;;;5.18;3.30;;;;;;;30.17;38.62;100472.34;5012024;28;20056;-69
2021/07/27 10:06:43;;;;;;;7.80;3.22;;;;;;;30.46;37.75;100470.84;5024658;28;20112;-70
2021/07/27 10:09:10;;;;;;;4.97;3.13;;;;;;;30.29;38.19;100464.31;5016490;28;20504;-70
2021/07/27 10:11:40;;;;;;;9.43;4.07;;;;;;;30.17;38.93;100470.50;5013530;28;20084;-70
2021/07/27 10:14:10;;;;;;;6.25;3.60;;;;;;;30.44;38.68;100470.22;5019223;28;20541;-71
2021/07/27 10:16:38;;;;;;;8.25;3.85;;;;;;;30.12;38.55;100470.28;5037012;28;20058;-70
2021/07/27 10:19:22;;;;;;;9.20;4.07;;;;;;;30.29;37.46;100461.59;5026877;28;20416;-70
2021/07/27 10:22:09;;;;;;;7.38;3.60;;;;;;;30.24;39.04;100465.81;5022229;28;20489;-69
2021/07/27 10:24:43;;;;;;;8.27;4.60;;;;;;;30.99;38.36;100462.13;5026519;28;20055;-68
2021/07/27 10:27:11;;;;;;;6.15;4.13;;;;;;;31.14;37.02;100459.00;5009436;28;20059;-70
2021/07/27 10:29:38;;;;;;;8.52;4.20;;;;;;;30.20;38.73;100469.22;5033462;28;20079;-69
2021/07/27 10:32:13;;;;;;;8.50;3.80;;;;;;;30.30;39.65;100469.53;5024581;28;20439;-70
2021/07/27 10:34:43;;;;;;;40.28;7.13;;;;;;;30.08;39.89;100471.81;5009995;28;20154;-70
2021/07/27 10:37:12;;;;;;;8.50;3.92;;;;;;;30.49;39.08;100473.13;5007125;28;20459;-70
2021/07/27 10:39:47;;;;;;;13.95;4.97;;;;;;;29.92;39.76;100470.47;5030567;28;20060;-71
2021/07/27 10:42:14;;;;;;;5.72;3.80;;;;;;;30.00;39.37;100472.09;5010469;28;20067;-70
2021/07/27 10:44:41;;;;;;;7.57;3.78;;;;;;;29.64;40.54;100472.78;5028103;28;20053;-69
2021/07/27 10:47:21;;;;;;;6.07;2.90;;;;;;;29.89;38.57;100467.34;5027032;28;20045;-68
2021/07/27 10:50:17;;;;;;;4.38;3.30;;;;;;;29.90;36.48;100467.16;5003887;28;20049;-69
2021/07/27 10:52:48;;;;;;;4.13;2.90;;;;;;;29.34;38.22;100464.38;4990063;28;20423;-69
2021/07/27 10:55:16;;;;;;;8.93;3.65;;;;;;;29.49;37.71;100452.16;5011918;28;20057;-69
2021/07/27 10:57:46;;;;;;;6.38;3.58;;;;;;;29.15;38.31;100458.00;5017464;28;20238;-69
2021/07/27 11:00:14;;;;;;;5.95;2.95;;;;;;;29.60;37.38;100456.09;5033066;28;20049;-69
2021/07/27 11:02:41;;;;;;;3.35;2.65;;;;;;;30.05;36.43;100455.13;5010531;28;20049;-69
2021/07/27 11:05:12;;;;;;;3.05;2.70;;;;;;;30.10;36.70;100442.53;5028145;28;20539;-70
2021/07/27 11:07:39;;;;;;;3.47;2.85;;;;;;;30.36;36.10;100443.38;5009178;28;20496;-69
2021/07/27 11:10:06;;;;;;;4.35;3.10;;;;;;;30.15;36.59;100445.44;5026825;28;20470;-69
2021/07/27 11:12:41;;;;;;;6.10;3.13;;;;;;;30.00;37.60;100444.94;5030250;28;20052;-69
2021/07/27 11:15:22;;;;;;;4.28;2.92;;;;;;;29.38;38.11;100450.16;5007710;28;20128;-70
2021/07/27 11:17:50;;;;;;;6.25;2.85;;;;;;;29.37;38.39;100437.66;5010507;28;20046;-70
2021/07/27 11:20:22;;;;;;;3.97;2.80;;;;;;;29.38;38.13;100452.03;5030466;28;20084;-69
2021/07/27 11:22:54;;;;;;;3.53;2.95;;;;;;;29.09;38.91;100454.28;5033752;28;20128;-71
2021/07/27 11:25:23;;;;;;;5.57;2.42;;;;;;;29.32;38.95;100451.03;4992679;28;20041;-69
2021/07/27 11:27:51;;;;;;;7.22;2.83;;;;;;;29.74;37.60;100446.81;5006066;28;20512;-70
2021/07/27 11:30:20;;;;;;;5.22;3.08;;;;;;;29.81;37.65;100451.34;5025185;28;20172;-70
2021/07/27 11:32:49;;;;;;;5.88;2.97;;;;;;;30.13;35.76;100444.81;5023912;28;20460;-68
2021/07/27 11:35:22;;;;;;;4.30;2.80;;;;;;;29.79;36.48;100448.03;5042501;28;20053;-69
2021/07/27 11:38:03;;;;;;;4.32;2.95;;;;;;;30.06;36.11;100445.91;5034327;28;20060;-69
2021/07/27 11:40:34;;;;;;;4.18;2.83;;;;;;;30.36;36.07;100437.94;5023118;28;20121;-70
2021/07/27 11:43:07;;;;;;;7.18;2.45;;;;;;;30.58;35.95;100438.34;5003565;28;20092;-70
2021/07/27 11:45:38;;;;;;;3.85;2.60;;;;;;;30.44;35.60;100430.34;4999534;28;20048;-70
2021/07/27 11:48:05;;;;;;;4.85;2.47;;;;;;;30.60;35.27;100436.22;5004443;28;20164;-71
2021/07/27 11:50:34;;;;;;;7.65;2.92;;;;;;;30.28;35.96;100428.19;5006045;28;20179;-69